Time;durP1;ratioP1;P1;durP2;ratioP2;P2;SDS_P1;SDS_P2;PMS_P1;PMS_P2;Temp;Humidity;BMP_temperature;BMP_pressure;BME280_temperature;BME280_humidity;BME280_pressure;Samples;Min_cycle;Max_cycle;Signal;HPM_P1;HPM_P2
2021/06/20 00:00:54;;;;;;;9.98;3.10;;;19.50;99.90;;;;;;5057603;28;20148;-63
2021/06/20 00:03:20;;;;;;;11.73;3.80;;;19.50;99.90;;;;;;5051582;28;20486;-65
2021/06/20 00:05:54;;;;;;;6.75;2.60;;;19.50;99.90;;;;;;5058301;28;20024;-63
2021/06/20 00:08:20;;;;;;;;;;;19.50;99.90;;;;;;5041013;28;20029;-61
2021/06/20 00:10:48;;;;;;;9.90;3.17;;;19.50;99.90;;;;;;5022072;28;19925;-63
2021/06/20 00:13:15;;;;;;;16.90;3.60;;;19.50;99.90;;;;;;5047512;28;20032;-65
2021/06/20 00:15:41;;;;;;;7.20;3.00;;;19.50;99.90;;;;;;5048201;28;20021;-63
2021/06/20 00:18:07;;;;;;;12.35;3.13;;;19.50;99.90;;;;;;5050663;28;20097;-64
2021/06/20 00:20:36;;;;;;;6.97;3.20;;;19.50;99.90;;;;;;5055697;28;20090;-64
2021/06/20 00:23:02;;;;;;;5.53;2.72;;;19.50;99.90;;;;;;5056722;28;20115;-65
2021/06/20 00:25:27;;;;;;;6.32;2.70;;;19.50;99.90;;;;;;5047268;28;20105;-65
2021/06/20 00:27:54;;;;;;;10.23;2.60;;;19.50;99.90;;;;;;5053307;28;20536;-65
2021/06/20 00:30:21;;;;;;;4.25;2.20;;;19.50;99.90;;;;;;5048965;28;20070;-64
2021/06/20 00:32:48;;;;;;;4.72;2.30;;;19.40;99.90;;;;;;5042289;28;20029;-64
2021/06/20 00:35:14;;;;;;;5.53;2.97;;;19.40;99.90;;;;;;5033695;28;20025;-65
2021/06/20 00:37:41;;;;;;;12.93;3.08;;;19.50;99.90;;;;;;5034426;28;20506;-64
2021/06/20 00:40:08;;;;;;;4.38;2.30;;;19.40;99.90;;;;;;5042978;28;20114;-63
2021/06/20 00:42:34;;;;;;;6.45;2.30;;;19.50;99.90;;;;;;5048350;28;20033;-63
2021/06/20 00:44:59;;;;;;;9.82;3.08;;;19.40;99.90;;;;;;5044957;28;20089;-63
2021/06/20 00:47:25;;;;;;;29.55;4.57;;;19.40;99.90;;;;;;5047149;28;20107;-64
2021/06/20 00:49:51;;;;;;;17.25;4.30;;;19.50;99.90;;;;;;5043951;28;20071;-63
2021/06/20 00:52:18;;;;;;;13.85;4.00;;;19.50;99.90;;;;;;5048438;28;20055;-64
2021/06/20 00:54:48;;;;;;;15.25;4.20;;;19.50;99.90;;;;;;5042731;28;20032;-64
2021/06/20 00:57:17;;;;;;;10.85;4.40;;;19.50;99.90;;;;;;5035709;28;20618;-64
2021/06/20 00:59:43;;;;;;;12.90;5.07;;;19.40;99.90;;;;;;5039380;28;20083;-63
2021/06/20 01:02:12;;;;;;;15.07;5.53;;;19.40;99.90;;;;;;5026405;28;20398;-64
2021/06/20 01:04:45;;;;;;;9.82;3.55;;;19.40;99.90;;;;;;5046944;28;20032;-63
2021/06/20 01:07:15;;;;;;;10.63;3.97;;;19.30;99.90;;;;;;5049987;28;20032;-64
2021/06/20 01:09:41;;;;;;;10.18;4.82;;;19.20;99.90;;;;;;5054327;28;20037;-63
2021/06/20 01:12:07;;;;;;;13.90;4.70;;;19.20;99.90;;;;;;5057119;28;20040;-62
2021/06/20 01:14:34;;;;;;;9.57;4.40;;;19.20;99.90;;;;;;5047845;28;20116;-62
2021/06/20 01:17:00;;;;;;;14.80;4.50;;;19.20;99.90;;;;;;5054865;28;20039;-63
2021/06/20 01:19:27;;;;;;;13.05;5.72;;;19.20;99.90;;;;;;5054324;28;20033;-62
2021/06/20 01:21:53;;;;;;;12.63;6.13;;;19.20;99.90;;;;;;5062685;28;20123;-63
2021/06/20 01:24:19;;;;;;;12.18;4.32;;;19.10;99.90;;;;;;5053601;28;20029;-64
2021/06/20 01:26:44;;;;;;;10.18;4.28;;;19.10;99.90;;;;;;5053602;28;20029;-62
2021/06/20 01:29:13;;;;;;;14.43;4.35;;;19.10;99.90;;;;;;5053677;28;20037;-63
2021/06/20 01:31:48;;;;;;;9.65;4.57;;;19.00;99.90;;;;;;5049220;28;20021;-63
2021/06/20 01:34:14;;;;;;;10.20;4.10;;;19.00;99.90;;;;;;5046128;28;20524;-62
2021/06/20 01:36:39;;;;;;;9.40;4.50;;;19.00;99.90;;;;;;5030590;28;20108;-63
2021/06/20 01:39:06;;;;;;;11.43;4.32;;;19.00;99.90;;;;;;5050007;28;20031;-63
2021/06/20 01:41:32;;;;;;;16.70;4.85;;;18.90;99.90;;;;;;5046100;28;20044;-64
2021/06/20 01:43:57;;;;;;;14.57;4.68;;;19.00;99.90;;;;;;5059164;28;20037;-64
2021/06/20 01:46:23;;;;;;;14.35;4.30;;;18.90;99.90;;;;;;5031941;28;20035;-63
2021/06/20 01:48:48;;;;;;;16.83;5.82;;;18.90;99.90;;;;;;5049954;28;20039;-63
2021/06/20 01:51:14;;;;;;;11.52;4.47;;;18.90;99.90;;;;;;5050575;28;20047;-63
2021/06/20 01:53:40;;;;;;;17.95;5.55;;;18.90;99.90;;;;;;5050657;28;20033;-64
2021/06/20 01:56:05;;;;;;;17.05;5.00;;;18.90;99.90;;;;;;5042177;28;20021;-63
2021/06/20 01:58:31;;;;;;;15.05;5.05;;;18.90;99.90;;;;;;5045124;28;20498;-63
2021/06/20 02:00:57;;;;;;;19.38;4.50;;;18.90;99.90;;;;;;5046979;28;20514;-64
2021/06/20 02:03:27;;;;;;;16.45;4.30;;;18.90;99.90;;;;;;5049684;28;20032;-63
2021/06/20 02:05:57;;;;;;;12.90;4.72;;;18.90;99.90;;;;;;5048753;28;20116;-65
2021/06/20 02:08:22;;;;;;;15.90;4.72;;;18.90;99.90;;;;;;5050107;28;20075;-63
2021/06/20 02:10:53;;;;;;;9.65;3.88;;;18.90;99.90;;;;;;5040444;28;20029;-64
2021/06/20 02:13:23;;;;;;;15.68;4.60;;;18.90;99.90;;;;;;5050505;28;20556;-64
2021/06/20 02:15:50;;;;;;;18.45;4.72;;;18.90;99.90;;;;;;5053750;28;20040;-64
2021/06/20 02:18:15;;;;;;;10.15;4.47;;;18.90;99.90;;;;;;5038352;28;20136;-64
2021/06/20 02:20:41;;;;;;;17.58;5.53;;;18.90;99.90;;;;;;5048373;28;20455;-63
2021/06/20 02:23:07;;;;;;;16.00;4.40;;;18.90;99.90;;;;;;5046105;28;20091;-64
2021/06/20 02:25:33;;;;;;;12.20;4.40;;;18.90;99.90;;;;;;5049514;28;20029;-63
2021/06/20 02:27:58;;;;;;;11.23;4.43;;;19.00;99.90;;;;;;5047022;28;20029;-63
2021/06/20 02:30:24;;;;;;;11.93;4.38;;;19.00;99.90;;;;;;5042987;28;20026;-62
2021/06/20 02:32:52;;;;;;;15.88;5.55;;;19.00;99.90;;;;;;5046395;28;20052;-64
2021/06/20 02:35:18;;;;;;;10.07;4.72;;;19.00;99.90;;;;;;5061984;28;20386;-64
2021/06/20 02:37:45;;;;;;;14.88;5.07;;;19.00;99.90;;;;;;5061976;28;20029;-63
2021/06/20 02:40:12;;;;;;;19.70;5.70;;;19.00;99.90;;;;;;5058935;28;20024;-61
2021/06/20 02:42:38;;;;;;;16.42;5.97;;;19.00;99.90;;;;;;5049091;28;20047;-63
2021/06/20 02:45:06;;;;;;;12.02;5.63;;;19.00;99.90;;;;;;5046149;28;20580;-63
2021/06/20 02:47:32;;;;;;;16.15;5.95;;;19.00;99.90;;;;;;5051294;28;20021;-64
2021/06/20 02:49:58;;;;;;;13.15;5.40;;;19.10;99.90;;;;;;5047686;28;20037;-65
2021/06/20 02:52:24;;;;;;;11.27;4.68;;;19.00;99.90;;;;;;5049685;28;20100;-64
2021/06/20 02:54:49;;;;;;;16.95;6.45;;;19.00;99.90;;;;;;5047709;28;20025;-64
2021/06/20 02:57:21;;;;;;;21.92;6.75;;;19.10;99.90;;;;;;5056024;28;20029;-63
2021/06/20 02:59:47;;;;;;;16.33;6.15;;;19.10;99.90;;;;;;5056506;28;20033;-64
2021/06/20 03:02:13;;;;;;;15.63;5.85;;;19.10;99.90;;;;;;5048091;28;20025;-63
2021/06/20 03:04:39;;;;;;;15.32;5.45;;;19.10;99.90;;;;;;5047314;28;20179;-62
2021/06/20 03:07:05;;;;;;;15.93;6.13;;;19.10;99.90;;;;;;5047601;28;20036;-63
2021/06/20 03:09:32;;;;;;;12.27;6.45;;;19.10;99.90;;;;;;5046472;28;20033;-64
2021/06/20 03:11:57;;;;;;;17.45;6.18;;;19.10;99.90;;;;;;5046855;28;20525;-63
2021/06/20 03:14:23;;;;;;;15.48;6.72;;;19.10;99.90;;;;;;5046632;28;20030;-63
2021/06/20 03:16:48;;;;;;;16.13;7.22;;;19.20;99.90;;;;;;5043232;28;20516;-63
2021/06/20 03:19:14;;;;;;;20.88;7.45;;;19.20;99.90;;;;;;5055617;28;20128;-64
2021/06/20 03:21:41;;;;;;;19.63;8.45;;;19.20;99.90;;;;;;5046721;28;20033;-64
2021/06/20 03:24:07;;;;;;;21.10;7.47;;;19.20;99.90;;;;;;5048124;28;20087;-64
2021/06/20 03:26:33;;;;;;;27.45;7.75;;;19.20;99.90;;;;;;5044406;28;20041;-63
2021/06/20 03:28:59;;;;;;;19.52;7.68;;;19.20;99.90;;;;;;5044621;28;20029;-61
2021/06/20 03:31:26;;;;;;;22.75;7.68;;;19.20;99.90;;;;;;5047838;28;20029;-64
2021/06/20 03:33:52;;;;;;;15.85;6.40;;;19.20;99.90;;;;;;5039770;28;20052;-64
2021/06/20 03:36:18;;;;;;;17.98;7.90;;;19.20;99.90;;;;;;5048931;28;20521;-64
2021/06/20 03:38:44;;;;;;;19.45;7.32;;;19.20;99.90;;;;;;5052791;28;20045;-64
2021/06/20 03:41:11;;;;;;;20.35;9.32;;;19.10;99.90;;;;;;5045986;28;20160;-63
2021/06/20 03:43:37;;;;;;;24.88;8.05;;;19.10;99.90;;;;;;5029447;28;20525;-63
2021/06/20 03:46:03;;;;;;;20.48;8.25;;;19.10;99.90;;;;;;5052882;28;20108;-64
2021/06/20 03:48:28;;;;;;;21.55;7.32;;;19.10;99.90;;;;;;5056902;28;20116;-63
2021/06/20 03:50:54;;;;;;;18.95;8.88;;;19.10;99.90;;;;;;5046601;28;20051;-64
2021/06/20 03:53:19;;;;;;;20.75;7.10;;;19.10;99.90;;;;;;5054391;28;20063;-64
2021/06/20 03:55:45;;;;;;;17.85;7.43;;;19.00;99.90;;;;;;5025842;28;20494;-63
2021/06/20 03:58:11;;;;;;;18.85;6.50;;;19.00;99.90;;;;;;5048177;28;20029;-58
2021/06/20 04:00:37;;;;;;;22.67;7.38;;;19.00;99.90;;;;;;5047891;28;20118;-64
2021/06/20 04:03:04;;;;;;;19.52;7.05;;;19.00;99.90;;;;;;5039790;28;20049;-65
2021/06/20 04:05:31;;;;;;;22.77;7.60;;;19.00;99.90;;;;;;5047579;28;20029;-63
2021/06/20 04:07:57;;;;;;;19.15;7.07;;;19.00;99.90;;;;;;5046523;28;20025;-63
2021/06/20 04:10:23;;;;;;;21.70;7.90;;;19.00;99.90;;;;;;5045308;28;20040;-64
2021/06/20 04:12:48;;;;;;;23.55;8.15;;;19.00;99.90;;;;;;5046282;28;20364;-64
2021/06/20 04:15:14;;;;;;;14.40;6.13;;;19.00;99.90;;;;;;5046477;28;20082;-64
2021/06/20 04:17:40;;;;;;;17.48;7.38;;;19.10;99.90;;;;;;5032815;28;20028;-64
2021/06/20 04:20:07;;;;;;;11.18;6.10;;;19.10;99.90;;;;;;5045607;28;20033;-62
2021/06/20 04:22:33;;;;;;;19.20;7.40;;;19.20;99.90;;;;;;5028618;28;20573;-62
2021/06/20 04:24:59;;;;;;;10.60;5.78;;;19.30;99.90;;;;;;5045030;28;20158;-64
2021/06/20 04:27:25;;;;;;;21.90;6.35;;;19.30;99.90;;;;;;5048629;28;20020;-62
2021/06/20 04:29:50;;;;;;;14.82;5.65;;;19.40;99.90;;;;;;5050207;28;20414;-64
2021/06/20 04:32:16;;;;;;;17.75;5.38;;;19.40;99.90;;;;;;5025678;28;20100;-64
2021/06/20 04:34:42;;;;;;;15.32;5.57;;;19.70;99.90;;;;;;5053984;28;20032;-63
2021/06/20 04:37:07;;;;;;;10.05;4.60;;;20.40;99.90;;;;;;5045488;28;20017;-64
2021/06/20 04:39:33;;;;;;;7.63;3.70;;;21.10;99.90;;;;;;5044036;28;20040;-63
2021/06/20 04:41:59;;;;;;;8.93;3.15;;;21.60;99.90;;;;;;5048775;28;20036;-64
2021/06/20 04:44:43;;;;;;;10.85;2.80;;;21.80;99.90;;;;;;5051592;28;20045;-63
2021/06/20 04:47:10;;;;;;;6.50;2.33;;;22.70;99.90;;;;;;5040655;28;20021;-63
2021/06/20 04:49:36;;;;;;;8.38;1.70;;;23.90;99.90;;;;;;5041913;28;20065;-65
2021/06/20 04:52:05;;;;;;;4.70;2.00;;;24.70;99.90;;;;;;5044667;28;20049;-64
2021/06/20 04:54:33;;;;;;;5.97;2.17;;;25.40;99.90;;;;;;5051930;28;20040;-64
2021/06/20 04:56:58;;;;;;;9.63;2.38;;;25.80;99.90;;;;;;5045573;28;20450;-64
2021/06/20 04:59:24;;;;;;;8.07;2.42;;;26.40;99.90;;;;;;5050853;28;20116;-64
2021/06/20 05:01:50;;;;;;;8.07;2.80;;;26.30;99.90;;;;;;5034455;28;20104;-65
2021/06/20 05:04:15;;;;;;;7.65;2.10;;;25.60;99.90;;;;;;5051124;28;20021;-67
2021/06/20 05:06:41;;;;;;;6.18;2.20;;;25.10;99.90;;;;;;5042961;28;20029;-64
2021/06/20 05:09:06;;;;;;;20.02;2.42;;;24.60;99.90;;;;;;5048045;28;20025;-64
2021/06/20 05:11:32;;;;;;;10.88;2.35;;;24.90;99.90;;;;;;5053346;28;20787;-64
2021/06/20 05:13:58;;;;;;;5.95;2.38;;;25.60;99.90;;;;;;5053734;28;20020;-64
2021/06/20 05:16:23;;;;;;;7.22;1.75;;;26.10;99.90;;;;;;5052018;28;20425;-64
2021/06/20 05:18:49;;;;;;;4.82;1.63;;;26.30;99.90;;;;;;5058288;28;20042;-64
2021/06/20 05:21:15;;;;;;;9.70;2.38;;;27.00;99.90;;;;;;5049333;28;20078;-64
2021/06/20 05:23:41;;;;;;;10.80;2.05;;;27.60;99.10;;;;;;5050674;28;20505;-64
2021/06/20 05:26:06;;;;;;;7.18;1.98;;;28.40;97.30;;;;;;5046611;28;20500;-63
2021/06/20 05:28:32;;;;;;;6.75;2.05;;;28.70;96.40;;;;;;5054338;28;20037;-63
2021/06/20 05:30:57;;;;;;;8.23;1.77;;;29.20;95.30;;;;;;5048745;28;20685;-65
2021/06/20 05:33:23;;;;;;;7.00;1.88;;;29.30;93.80;;;;;;5045424;28;20494;-63
2021/06/20 05:35:48;;;;;;;7.78;1.90;;;29.30;92.80;;;;;;5050593;28;20025;-64
2021/06/20 05:38:15;;;;;;;5.13;1.95;;;29.70;92.70;;;;;;5058555;28;20033;-64
2021/06/20 05:40:42;;;;;;;5.75;1.63;;;30.40;92.10;;;;;;5048945;28;20091;-64
2021/06/20 05:43:08;;;;;;;9.50;1.65;;;30.20;90.70;;;;;;5050695;28;20445;-65
2021/06/20 05:45:34;;;;;;;5.45;1.85;;;30.00;88.50;;;;;;5049734;28;20032;-65
2021/06/20 05:48:00;;;;;;;9.48;2.47;;;30.20;91.20;;;;;;5047450;28;20022;-64
2021/06/20 05:50:25;;;;;;;3.90;1.77;;;30.60;89.60;;;;;;5049124;28;20037;-64
2021/06/20 05:52:52;;;;;;;5.28;1.65;;;30.90;88.20;;;;;;5049808;28;20032;-63
2021/06/20 05:55:18;;;;;;;8.18;1.98;;;31.40;85.10;;;;;;5045061;28;20034;-64
2021/06/20 05:57:43;;;;;;;3.85;2.00;;;31.30;83.70;;;;;;5051106;28;20017;-64
2021/06/20 06:00:10;;;;;;;7.65;1.73;;;31.40;85.40;;;;;;5063847;28;20676;-64
2021/06/20 06:02:36;;;;;;;9.20;1.73;;;31.60;81.60;;;;;;5031902;28;20057;-65
2021/06/20 06:05:02;;;;;;;5.68;1.90;;;31.70;80.60;;;;;;5049049;28;20032;-65
2021/06/20 06:07:28;;;;;;;5.03;1.60;;;31.70;80.50;;;;;;5048756;28;20108;-64
2021/06/20 06:09:53;;;;;;;12.43;2.03;;;31.70;79.70;;;;;;5052860;28;20020;-64
2021/06/20 06:12:23;;;;;;;6.95;1.50;;;31.80;79.30;;;;;;5053726;28;20057;-64
2021/06/20 06:14:50;;;;;;;6.15;1.35;;;32.20;81.80;;;;;;5048322;28;20033;-63
2021/06/20 06:17:16;;;;;;;6.65;1.77;;;32.20;77.40;;;;;;5049140;28;20025;-63
2021/06/20 06:19:41;;;;;;;4.15;1.95;;;32.30;77.20;;;;;;5047371;28;20078;-66
2021/06/20 06:22:07;;;;;;;5.38;1.80;;;32.20;76.30;;;;;;5051081;28;20029;-65
2021/06/20 06:24:32;;;;;;;5.13;1.77;;;32.30;76.80;;;;;;5048932;28;20029;-65
2021/06/20 06:26:58;;;;;;;3.90;1.65;;;31.90;77.70;;;;;;5048630;28;20037;-64
2021/06/20 06:29:23;;;;;;;10.05;1.67;;;31.40;77.60;;;;;;5048446;28;20024;-63
2021/06/20 06:31:49;;;;;;;3.67;2.08;;;31.20;80.00;;;;;;5046789;28;20100;-64
2021/06/20 06:34:14;;;;;;;6.55;1.60;;;31.40;78.30;;;;;;5048559;28;20032;-65
2021/06/20 06:36:40;;;;;;;9.77;1.92;;;31.70;78.90;;;;;;5049257;28;20082;-63
2021/06/20 06:39:06;;;;;;;4.72;1.67;;;31.90;81.30;;;;;;5046876;28;20025;-64
2021/06/20 06:41:32;;;;;;;5.95;1.92;;;31.80;77.90;;;;;;5050627;28;20039;-65
2021/06/20 06:43:58;;;;;;;13.13;2.35;;;32.10;76.60;;;;;;5046012;28;20044;-64
2021/06/20 06:46:24;;;;;;;5.03;1.55;;;32.50;74.30;;;;;;5053097;28;20040;-64
2021/06/20 06:48:49;;;;;;;6.97;1.83;;;32.00;75.70;;;;;;5045962;28;20040;-64
2021/06/20 06:51:15;;;;;;;8.45;2.30;;;31.10;76.50;;;;;;5038977;28;20021;-64
2021/06/20 06:53:41;;;;;;;5.07;1.35;;;31.30;77.80;;;;;;5048252;28;20116;-65
2021/06/20 06:56:06;;;;;;;7.18;1.58;;;30.90;83.00;;;;;;5047311;28;20025;-63
2021/06/20 06:58:32;;;;;;;6.30;1.70;;;31.00;78.30;;;;;;5057345;28;20035;-64
2021/06/20 07:00:58;;;;;;;7.85;2.28;;;31.10;77.40;;;;;;5054500;28;20037;-64
2021/06/20 07:03:23;;;;;;;2.03;1.45;;;30.70;76.70;;;;;;5032412;28;20057;-65
2021/06/20 07:05:49;;;;;;;5.15;1.48;;;30.00;78.90;;;;;;5048140;28;20029;-63
2021/06/20 07:08:14;;;;;;;3.30;1.40;;;30.50;80.90;;;;;;5029884;28;20025;-63
2021/06/20 07:10:40;;;;;;;4.50;1.55;;;31.20;74.80;;;;;;5047528;28;20036;-62
2021/06/20 07:13:06;;;;;;;4.18;1.48;;;31.30;76.50;;;;;;5051784;28;20039;-63
2021/06/20 07:15:32;;;;;;;3.42;1.30;;;31.90;75.50;;;;;;5046737;28;20116;-61
2021/06/20 07:17:59;;;;;;;6.50;1.45;;;31.80;72.70;;;;;;5052490;28;20107;-62
2021/06/20 07:20:25;;;;;;;3.95;1.40;;;32.20;74.00;;;;;;5049408;28;20044;-63
2021/06/20 07:22:50;;;;;;;3.47;1.52;;;32.20;69.90;;;;;;5047401;28;20032;-64
2021/06/20 07:25:22;;;;;;;9.55;1.73;;;31.90;73.20;;;;;;5046368;28;20078;-64
2021/06/20 07:27:48;;;;;;;4.95;1.50;;;31.70;72.70;;;;;;5050098;28;20028;-64
2021/06/20 07:30:17;;;;;;;5.55;1.67;;;32.40;72.20;;;;;;5051749;28;20029;-62
2021/06/20 07:32:44;;;;;;;4.10;1.55;;;32.30;70.60;;;;;;5043561;28;20104;-64
2021/06/20 07:35:10;;;;;;;2.10;1.30;;;31.50;71.10;;;;;;5045793;28;20025;-64
2021/06/20 07:37:36;;;;;;;3.22;1.23;;;30.80;71.40;;;;;;5047587;28;20028;-64
2021/06/20 07:40:11;;;;;;;4.13;1.40;;;30.40;71.00;;;;;;5039159;28;20060;-64
2021/06/20 07:42:37;;;;;;;2.30;1.38;;;30.10;73.30;;;;;;5045738;28;20035;-64
2021/06/20 07:45:05;;;;;;;2.17;1.25;;;30.70;72.80;;;;;;5042959;28;20175;-64
2021/06/20 07:47:31;;;;;;;5.70;1.50;;;30.80;72.50;;;;;;5031168;28;20036;-64
2021/06/20 07:49:56;;;;;;;3.60;1.38;;;30.00;72.80;;;;;;5046362;28;20021;-63
2021/06/20 07:52:22;;;;;;;3.33;1.35;;;30.90;73.30;;;;;;5048729;28;20711;-64
2021/06/20 07:54:51;;;;;;;3.63;1.48;;;31.10;69.30;;;;;;5053152;28;20029;-63
2021/06/20 07:57:18;;;;;;;6.07;1.27;;;30.80;71.90;;;;;;5030496;28;20611;-64
2021/06/20 07:59:45;;;;;;;6.68;1.90;;;30.00;73.40;;;;;;5044487;28;20099;-64
2021/06/20 08:02:10;;;;;;;5.45;1.60;;;29.80;72.00;;;;;;5047435;28;20029;-62
2021/06/20 08:04:36;;;;;;;4.15;1.20;;;29.80;72.90;;;;;;5018849;28;20580;-62
2021/06/20 08:07:02;;;;;;;4.10;1.48;;;29.90;72.40;;;;;;5044761;28;20035;-65
2021/06/20 08:09:27;;;;;;;2.80;1.15;;;30.70;74.40;;;;;;5046306;28;20033;-64
2021/06/20 08:11:53;;;;;;;2.58;1.52;;;31.40;70.60;;;;;;5047909;28;20082;-64
2021/06/20 08:14:19;;;;;;;5.15;1.33;;;32.10;68.60;;;;;;5045861;28;20025;-64
2021/06/20 08:16:45;;;;;;;5.03;1.23;;;32.60;68.40;;;;;;5047823;28;20071;-64
2021/06/20 08:19:11;;;;;;;3.45;1.60;;;32.00;66.20;;;;;;5050398;28;20100;-65
2021/06/20 08:21:37;;;;;;;4.63;1.42;;;32.50;65.30;;;;;;5049633;28;20024;-64
2021/06/20 08:24:02;;;;;;;5.00;1.27;;;32.20;66.40;;;;;;5051227;28;20067;-63
2021/06/20 08:26:28;;;;;;;2.47;1.10;;;31.90;65.80;;;;;;5046370;28;20090;-62
2021/06/20 08:28:53;;;;;;;2.55;1.10;;;32.50;66.20;;;;;;5045561;28;20151;-64
2021/06/20 08:31:19;;;;;;;2.88;1.30;;;31.80;64.60;;;;;;5047652;28;20020;-64
2021/06/20 08:33:45;;;;;;;3.90;1.40;;;31.30;66.50;;;;;;5053142;28;20025;-64
2021/06/20 08:36:10;;;;;;;4.00;1.27;;;31.30;68.80;;;;;;5044430;28;20407;-64
2021/06/20 08:38:36;;;;;;;3.38;1.42;;;31.80;67.70;;;;;;5051888;28;20037;-63
2021/06/20 08:41:02;;;;;;;3.13;1.52;;;32.20;65.10;;;;;;5057025;28;20115;-62
2021/06/20 08:43:28;;;;;;;1.98;0.93;;;32.00;64.80;;;;;;5057184;28;20048;-64
2021/06/20 08:45:54;;;;;;;1.88;1.40;;;32.90;63.90;;;;;;5049839;28;20553;-64
2021/06/20 08:48:21;;;;;;;5.03;1.40;;;33.10;61.10;;;;;;5047586;28;20032;-64
2021/06/20 08:50:50;;;;;;;1.63;1.00;;;32.60;63.10;;;;;;5051626;28;20017;-64
2021/06/20 08:53:17;;;;;;;3.58;1.05;;;33.00;62.40;;;;;;5055045;28;20034;-65
2021/06/20 08:55:46;;;;;;;3.38;0.90;;;32.80;61.50;;;;;;5047969;28;20047;-63
2021/06/20 08:58:31;;;;;;;3.10;1.20;;;33.20;63.50;;;;;;5047771;28;20625;-63
2021/06/20 09:00:58;;;;;;;3.53;1.00;;;32.70;61.70;;;;;;5059168;28;20038;-64
2021/06/20 09:03:24;;;;;;;4.38;1.30;;;32.90;61.60;;;;;;5036422;28;20123;-65
2021/06/20 09:06:03;;;;;;;2.67;1.27;;;33.40;63.40;;;;;;5047130;28;20566;-62
2021/06/20 09:08:30;;;;;;;3.40;1.27;;;33.20;61.80;;;;;;5054810;28;20094;-62
2021/06/20 09:10:57;;;;;;;6.97;1.55;;;32.60;60.60;;;;;;5043954;28;20025;-62
2021/06/20 09:13:31;;;;;;;4.32;1.67;;;32.40;61.40;;;;;;5048493;28;20552;-62
2021/06/20 09:16:17;;;;;;;2.42;1.42;;;31.80;61.80;;;;;;5055281;28;20032;-61
2021/06/20 09:18:51;;;;;;;2.88;1.38;;;31.70;68.60;;;;;;5052960;28;20581;-61
2021/06/20 09:21:17;;;;;;;4.93;0.95;;;31.60;63.40;;;;;;5051019;28;20051;-62
2021/06/20 09:23:42;;;;;;;2.90;1.58;;;32.00;65.90;;;;;;5052914;28;20132;-63
2021/06/20 09:26:09;;;;;;;2.42;0.95;;;33.00;65.20;;;;;;5045350;28;20162;-62
2021/06/20 09:28:38;;;;;;;1.27;1.00;;;32.90;58.70;;;;;;5057964;28;20029;-62
2021/06/20 09:31:06;;;;;;;3.90;1.63;;;33.20;61.50;;;;;;5051745;28;20045;-63
2021/06/20 09:33:35;;;;;;;3.10;1.23;;;33.40;59.50;;;;;;5039482;28;20037;-62
2021/06/20 09:36:02;;;;;;;1.63;1.10;;;33.40;60.00;;;;;;5039713;28;20115;-64
2021/06/20 09:38:40;;;;;;;2.95;1.00;;;32.30;61.20;;;;;;5021933;28;20033;-65
2021/06/20 09:41:08;;;;;;;4.28;1.08;;;31.90;60.80;;;;;;5038143;28;20017;-63
2021/06/20 09:43:36;;;;;;;3.10;1.30;;;31.10;61.60;;;;;;5041746;28;20025;-62
2021/06/20 09:46:03;;;;;;;5.03;1.00;;;30.40;62.80;;;;;;5044619;28;20021;-62
2021/06/20 09:48:30;;;;;;;5.75;1.73;;;29.90;64.30;;;;;;5021158;28;20018;-61
2021/06/20 09:51:11;;;;;;;1.75;0.77;;;29.00;63.50;;;;;;5044510;28;20500;-64
2021/06/20 09:53:39;;;;;;;1.13;0.90;;;29.00;68.80;;;;;;5040674;28;20025;-64
2021/06/20 09:56:13;;;;;;;1.75;1.40;;;29.60;67.40;;;;;;5037828;28;20029;-65
2021/06/20 09:58:42;;;;;;;2.90;1.13;;;29.50;64.50;;;;;;5044938;28;20056;-63
2021/06/20 10:01:16;;;;;;;6.07;1.10;;;29.30;67.40;;;;;;5040314;28;20045;-64
2021/06/20 10:03:45;;;;;;;2.97;1.05;;;29.70;65.50;;;;;;5026000;28;20041;-64
2021/06/20 10:06:13;;;;;;;2.55;1.00;;;29.30;65.60;;;;;;5040753;28;20040;-65
2021/06/20 10:08:39;;;;;;;5.97;1.10;;;29.20;68.70;;;;;;5042513;28;20028;-64
2021/06/20 10:11:05;;;;;;;3.25;1.17;;;28.90;67.30;;;;;;5057202;28;20017;-63
2021/06/20 10:13:31;;;;;;;3.45;1.30;;;28.50;66.60;;;;;;5055388;28;20466;-62
2021/06/20 10:16:24;;;;;;;2.97;1.30;;;28.30;66.90;;;;;;5032455;28;20017;-65
2021/06/20 10:19:05;;;;;;;2.20;1.05;;;28.20;68.90;;;;;;5051912;28;20036;-63
2021/06/20 10:21:38;;;;;;;2.13;0.98;;;28.30;67.50;;;;;;5039078;28;20054;-64
2021/06/20 10:24:04;;;;;;;4.65;1.20;;;28.80;70.00;;;;;;5050665;28;20489;-63
2021/06/20 10:26:31;;;;;;;3.95;1.10;;;28.90;67.30;;;;;;5044576;28;20376;-64
2021/06/20 10:28:57;;;;;;;4.22;1.00;;;28.70;67.80;;;;;;5050890;28;20027;-64
2021/06/20 10:31:33;;;;;;;5.47;1.20;;;28.30;66.10;;;;;;5050335;28;20029;-64
2021/06/20 10:34:18;;;;;;;8.07;1.33;;;28.10;67.30;;;;;;5053971;28;20103;-63
2021/06/20 10:36:45;;;;;;;2.90;1.02;;;27.70;69.50;;;;;;5047132;28;20431;-64
2021/06/20 10:39:12;;;;;;;1.67;0.93;;;27.60;68.00;;;;;;5029908;28;20025;-65
2021/06/20 10:41:38;;;;;;;1.20;0.95;;;28.00;68.80;;;;;;5050504;28;20033;-63
2021/06/20 10:44:04;;;;;;;4.80;1.10;;;28.50;69.70;;;;;;5062619;28;20154;-63
2021/06/20 10:46:31;;;;;;;5.00;1.08;;;28.30;69.90;;;;;;5052806;28;20021;-64
2021/06/20 10:48:57;;;;;;;10.27;2.25;;;28.10;73.00;;;;;;5055269;28;20033;-64
2021/06/20 10:51:24;;;;;;;2.03;0.90;;;28.10;68.40;;;;;;5042589;28;20020;-63
2021/06/20 10:53:50;;;;;;;3.45;1.27;;;28.10;69.60;;;;;;5058639;28;20032;-64
2021/06/20 10:56:25;;;;;;;3.08;1.30;;;28.50;69.80;;;;;;5060189;28;20020;-61
2021/06/20 10:58:53;;;;;;;1.90;1.17;;;28.50;68.00;;;;;;5061755;28;20040;-64
2021/06/20 11:01:21;;;;;;;3.47;1.10;;;28.70;68.60;;;;;;5055206;28;20075;-64
2021/06/20 11:03:47;;;;;;;1.83;1.10;;;28.80;69.30;;;;;;5043591;28;20049;-63
2021/06/20 11:06:15;;;;;;;2.75;1.10;;;28.70;68.50;;;;;;5062663;28;20025;-61
2021/06/20 11:08:43;;;;;;;3.40;1.10;;;28.50;69.10;;;;;;5053304;28;20544;-63
2021/06/20 11:11:28;;;;;;;1.40;1.08;;;28.90;72.00;;;;;;5062057;28;20025;-63
2021/06/20 11:13:56;;;;;;;3.67;1.25;;;29.40;69.90;;;;;;5053970;28;20101;-64
2021/06/20 11:16:38;;;;;;;2.80;1.02;;;29.60;67.60;;;;;;5065810;28;20099;-64
2021/06/20 11:19:16;;;;;;;4.18;1.10;;;29.70;64.40;;;;;;5047735;28;20024;-64
2021/06/20 11:21:43;;;;;;;1.98;1.20;;;29.30;64.00;;;;;;5044954;28;20064;-64
2021/06/20 11:24:12;;;;;;;1.50;1.20;;;29.40;64.50;;;;;;5053901;28;20103;-64
2021/06/20 11:26:38;;;;;;;2.90;1.13;;;29.50;65.60;;;;;;5059643;28;20024;-63
2021/06/20 11:29:04;;;;;;;3.33;1.02;;;29.50;65.40;;;;;;5057292;28;20024;-64
2021/06/20 11:31:30;;;;;;;4.05;1.10;;;29.80;64.30;;;;;;5052523;28;20079;-64
2021/06/20 11:33:57;;;;;;;3.03;2.20;;;29.00;63.80;;;;;;5057918;28;20028;-64
2021/06/20 11:36:26;;;;;;;3.13;1.20;;;29.20;65.90;;;;;;5060253;28;20021;-63
2021/06/20 11:38:52;;;;;;;2.50;1.23;;;28.80;65.60;;;;;;5060720;28;20024;-63
2021/06/20 11:41:23;;;;;;;4.78;1.20;;;28.60;66.70;;;;;;5055046;28;20037;-64
2021/06/20 11:43:52;;;;;;;3.63;1.25;;;28.30;66.20;;;;;;5055460;28;20037;-63
2021/06/20 11:46:23;;;;;;;2.08;1.20;;;28.20;67.10;;;;;;5047960;28;20028;-63
2021/06/20 11:48:51;;;;;;;1.65;1.10;;;28.70;69.00;;;;;;5050929;28;20035;-64
2021/06/20 11:51:33;;;;;;;1.80;0.85;;;29.00;67.30;;;;;;5059785;28;20012;-64
2021/06/20 11:54:30;;;;;;;2.15;1.20;;;29.00;64.20;;;;;;5049148;28;20561;-64
2021/06/20 11:57:02;;;;;;;3.20;1.02;;;29.20;67.20;;;;;;4989620;28;20111;-64
2021/06/20 11:59:34;;;;;;;1.17;0.95;;;29.00;67.00;;;;;;5048939;28;20037;-63
2021/06/20 12:02:02;;;;;;;2.15;1.10;;;28.70;66.00;;;;;;5052481;28;20371;-64
2021/06/20 12:04:31;;;;;;;6.53;1.30;;;28.50;67.70;;;;;;5039692;28;20461;-63
2021/06/20 12:06:57;;;;;;;1.20;0.98;;;28.50;67.20;;;;;;5064423;28;20029;-64
2021/06/20 12:09:23;;;;;;;2.45;0.95;;;28.50;66.80;;;;;;5055653;28;20043;-63
2021/06/20 12:12:02;;;;;;;3.35;1.20;;;28.30;68.90;;;;;;5064759;28;20020;-64
2021/06/20 12:14:31;;;;;;;5.30;1.13;;;28.30;68.60;;;;;;5047985;28;20044;-64
2021/06/20 12:16:57;;;;;;;1.33;1.00;;;28.50;69.40;;;;;;5057852;28;20170;-64
2021/06/20 12:19:25;;;;;;;4.78;1.25;;;28.30;69.30;;;;;;5035454;28;20851;-64
2021/06/20 12:22:07;;;;;;;4.18;1.20;;;28.50;69.20;;;;;;5060190;28;20065;-64
2021/06/20 12:24:54;;;;;;;6.85;1.30;;;28.80;68.30;;;;;;5054800;28;20025;-64
2021/06/20 12:27:29;;;;;;;4.70;2.08;;;29.20;67.00;;;;;;5058735;28;20017;-63
2021/06/20 12:29:54;;;;;;;1.95;1.15;;;29.60;69.00;;;;;;5059578;28;20027;-64
2021/06/20 12:32:20;;;;;;;2.88;1.00;;;30.20;65.80;;;;;;5049201;28;20025;-64
2021/06/20 12:34:49;;;;;;;2.72;0.85;;;30.50;66.20;;;;;;5050109;28;20033;-64
2021/06/20 12:37:15;;;;;;;2.42;1.20;;;30.50;64.80;;;;;;5061527;28;20017;-64
2021/06/20 12:39:49;;;;;;;3.35;1.17;;;30.50;64.30;;;;;;5050530;28;20367;-64
2021/06/20 12:42:15;;;;;;;2.00;1.00;;;30.00;67.50;;;;;;5034950;28;20021;-62
2021/06/20 12:44:45;;;;;;;1.40;1.30;;;30.00;64.70;;;;;;5049375;28;20120;-63